Little Rock, AR (72212)

6:51 AM CDT on May 06, 2015 (GMT -0500)
Turtle Creek | | Change Station
CLOSE
Current Station
Personal Weather Station
Location: Little Rock, AR
Elevation: 577 ft
Nearby Weather Stations

Elev 577 ft 34.76 °N, 92.41 °W | Updated 7 minutes ago

Mostly Cloudy
Mostly Cloudy
63.3 °F
Feels Like 63.3 °F
N
0.0
Wind Variable Wind from SW

Today
High -- | Low -- °F
--% Chance of Precip.
Yesterday
High -- | Low -- °F
Precip. -- in
6:14 AM 7:58 PM
Waning Gibbous, 94% visible
Pressure 30.09 in
Visibility 10.0 miles
Clouds Mostly Cloudy 7000 ft
Mostly Cloudy 25000 ft
Dew Point 58 °F
Humidity 84%
Rainfall 0.00 in
Snow Depth Not available.
UV 0 out of 12
Pollen 8.70 out of 12
Air Quality Not available.
Flu Activity No Activity
METAR KLIT 061053Z 17003KT 10SM BKN070 BKN250 18/13 A3009 RMK AO2 SLP190 T01830128

More Conditions Fewer Conditions

Pressure 30.09 in
Visibility 10.0 miles
Clouds Mostly Cloudy 7000 ft
Mostly Cloudy 25000 ft
Dew Point 58 °F
Humidity 84%
Rainfall 0.00 in
Snow Depth Not available.
UV 0 out of 12
Pollen 8.70 out of 12
Air Quality Not available.
Flu Activity No Activity
METAR KLIT 061053Z 17003KT 10SM BKN070 BKN250 18/13 A3009 RMK AO2 SLP190 T01830128

More Conditions Fewer Conditions

10-Day Weather Forecast

Almanac

Astronomy

May. 06, 2015 Rise Set
Actual Time
Civil Twilight
Nautical Twilight
Astronomical Twilight
Moon
Length of Visible Light
Length of Day
Tomorrow will be .
, % of the Moon is Illuminated

Today's Extremes

State Highs State Lows

Community

WunderPhotos

Upload Photos

1,818,880 photos uploaded!

WunderBlogs® & News

Nearby

Air Quality

  Air Quality AQ Index Pollutant
Not available.

Snow Depth

Station Depth Elevation

Earthquake Activity

City Distance Mag. Time & Date
Minimum magnitude displayed is 2.5.

Coastal Water Temperatures

Place Temperature

Stations

Nearby Weather Stations

Station Location Temp. Windchill Dew Point Humidity Wind Precip. Elev Updated Type